sensor_id;sensor_type;location;lat;lon;timestamp;P1;durP1;ratioP1;P2;durP2;ratioP2
17091;SDS011;8661;45.700;4.880;2022-09-03T00:02:27;0.00;;;0.00;;
17091;SDS011;8661;45.700;4.880;2022-09-03T00:05:02;0.00;;;0.00;;
17091;SDS011;8661;45.700;4.880;2022-09-03T00:07:35;0.00;;;0.00;;
17091;SDS011;8661;45.700;4.880;2022-09-03T00:10:10;0.20;;;0.20;;
17091;SDS011;8661;45.700;4.880;2022-09-03T00:12:42;0.00;;;0.00;;
17091;SDS011;8661;45.700;4.880;2022-09-03T00:15:11;0.10;;;0.10;;
17091;SDS011;8661;45.700;4.880;2022-09-03T00:17:41;0.10;;;0.10;;
17091;SDS011;8661;45.700;4.880;2022-09-03T00:20:12;0.00;;;0.00;;
17091;SDS011;8661;45.700;4.880;2022-09-03T00:22:44;0.13;;;0.13;;
17091;SDS011;8661;45.700;4.880;2022-09-03T00:25:16;0.00;;;0.00;;
17091;SDS011;8661;45.700;4.880;2022-09-03T00:27:47;0.00;;;0.00;;
17091;SDS011;8661;45.700;4.880;2022-09-03T00:30:19;0.00;;;0.00;;
17091;SDS011;8661;45.700;4.880;2022-09-03T00:32:49;0.00;;;0.00;;
17091;SDS011;8661;45.700;4.880;2022-09-03T00:35:21;0.00;;;0.00;;
17091;SDS011;8661;45.700;4.880;2022-09-03T00:37:52;0.00;;;0.00;;
17091;SDS011;8661;45.700;4.880;2022-09-03T00:43:14;0.10;;;0.10;;
17091;SDS011;8661;45.700;4.880;2022-09-03T00:45:51;0.30;;;0.20;;
17091;SDS011;8661;45.700;4.880;2022-09-03T00:48:28;0.00;;;0.00;;
17091;SDS011;8661;45.700;4.880;2022-09-03T00:51:01;0.10;;;0.10;;
17091;SDS011;8661;45.700;4.880;2022-09-03T00:53:37;0.00;;;0.00;;
17091;SDS011;8661;45.700;4.880;2022-09-03T00:56:12;0.10;;;0.10;;
17091;SDS011;8661;45.700;4.880;2022-09-03T00:58:51;0.00;;;0.00;;
17091;SDS011;8661;45.700;4.880;2022-09-03T01:01:39;0.10;;;0.10;;
17091;SDS011;8661;45.700;4.880;2022-09-03T01:07:07;0.00;;;0.00;;
17091;SDS011;8661;45.700;4.880;2022-09-03T01:09:43;0.00;;;0.00;;
17091;SDS011;8661;45.700;4.880;2022-09-03T01:12:20;0.00;;;0.00;;
17091;SDS011;8661;45.700;4.880;2022-09-03T01:14:59;0.00;;;0.00;;
17091;SDS011;8661;45.700;4.880;2022-09-03T01:17:35;0.00;;;0.00;;
17091;SDS011;8661;45.700;4.880;2022-09-03T01:20:22;0.00;;;0.00;;
17091;SDS011;8661;45.700;4.880;2022-09-03T01:23:03;0.00;;;0.00;;
17091;SDS011;8661;45.700;4.880;2022-09-03T01:26:07;0.00;;;0.00;;
17091;SDS011;8661;45.700;4.880;2022-09-03T01:28:50;0.00;;;0.00;;
17091;SDS011;8661;45.700;4.880;2022-09-03T01:31:31;0.00;;;0.00;;
17091;SDS011;8661;45.700;4.880;2022-09-03T01:34:08;0.00;;;0.00;;
17091;SDS011;8661;45.700;4.880;2022-09-03T01:36:43;0.10;;;0.10;;
17091;SDS011;8661;45.700;4.880;2022-09-03T01:39:17;0.00;;;0.00;;
17091;SDS011;8661;45.700;4.880;2022-09-03T01:41:55;0.00;;;0.00;;
17091;SDS011;8661;45.700;4.880;2022-09-03T01:44:56;0.10;;;0.10;;
17091;SDS011;8661;45.700;4.880;2022-09-03T01:47:44;0.00;;;0.00;;
17091;SDS011;8661;45.700;4.880;2022-09-03T01:50:24;0.00;;;0.00;;
17091;SDS011;8661;45.700;4.880;2022-09-03T01:53:02;0.00;;;0.00;;
17091;SDS011;8661;45.700;4.880;2022-09-03T01:55:38;0.00;;;0.00;;
17091;SDS011;8661;45.700;4.880;2022-09-03T01:58:13;0.00;;;0.00;;
17091;SDS011;8661;45.700;4.880;2022-09-03T02:00:46;0.10;;;0.10;;
17091;SDS011;8661;45.700;4.880;2022-09-03T02:03:21;0.00;;;0.00;;
17091;SDS011;8661;45.700;4.880;2022-09-03T02:05:48;0.00;;;0.00;;
17091;SDS011;8661;45.700;4.880;2022-09-03T02:08:17;1.00;;;0.20;;
17091;SDS011;8661;45.700;4.880;2022-09-03T02:10:45;0.10;;;0.10;;
17091;SDS011;8661;45.700;4.880;2022-09-03T02:13:17;0.00;;;0.00;;
17091;SDS011;8661;45.700;4.880;2022-09-03T02:15:49;0.00;;;0.00;;
17091;SDS011;8661;45.700;4.880;2022-09-03T02:18:18;0.00;;;0.00;;
17091;SDS011;8661;45.700;4.880;2022-09-03T02:20:47;0.00;;;0.00;;
17091;SDS011;8661;45.700;4.880;2022-09-03T02:23:15;0.00;;;0.00;;
17091;SDS011;8661;45.700;4.880;2022-09-03T02:25:43;0.00;;;0.00;;
17091;SDS011;8661;45.700;4.880;2022-09-03T02:28:13;0.00;;;0.00;;
17091;SDS011;8661;45.700;4.880;2022-09-03T02:30:40;0.00;;;0.00;;
17091;SDS011;8661;45.700;4.880;2022-09-03T02:33:09;0.00;;;0.00;;
17091;SDS011;8661;45.700;4.880;2022-09-03T02:35:36;0.10;;;0.10;;
17091;SDS011;8661;45.700;4.880;2022-09-03T02:38:10;0.00;;;0.00;;
17091;SDS011;8661;45.700;4.880;2022-09-03T02:40:40;0.10;;;0.10;;
17091;SDS011;8661;45.700;4.880;2022-09-03T02:43:10;0.00;;;0.00;;
17091;SDS011;8661;45.700;4.880;2022-09-03T02:45:41;0.00;;;0.00;;
17091;SDS011;8661;45.700;4.880;2022-09-03T02:48:13;0.00;;;0.00;;
17091;SDS011;8661;45.700;4.880;2022-09-03T02:50:45;0.00;;;0.00;;
17091;SDS011;8661;45.700;4.880;2022-09-03T02:53:12;0.00;;;0.00;;
17091;SDS011;8661;45.700;4.880;2022-09-03T02:55:39;0.10;;;0.10;;
17091;SDS011;8661;45.700;4.880;2022-09-03T02:58:07;0.00;;;0.00;;
17091;SDS011;8661;45.700;4.880;2022-09-03T03:00:34;0.00;;;0.00;;
17091;SDS011;8661;45.700;4.880;2022-09-03T03:03:01;0.00;;;0.00;;
17091;SDS011;8661;45.700;4.880;2022-09-03T03:05:31;0.00;;;0.00;;
17091;SDS011;8661;45.700;4.880;2022-09-03T03:08:07;0.00;;;0.00;;
17091;SDS011;8661;45.700;4.880;2022-09-03T03:10:34;0.00;;;0.00;;
17091;SDS011;8661;45.700;4.880;2022-09-03T03:13:01;0.00;;;0.00;;
17091;SDS011;8661;45.700;4.880;2022-09-03T03:15:28;0.00;;;0.00;;
17091;SDS011;8661;45.700;4.880;2022-09-03T03:17:55;0.00;;;0.00;;
17091;SDS011;8661;45.700;4.880;2022-09-03T03:20:22;0.10;;;0.10;;
17091;SDS011;8661;45.700;4.880;2022-09-03T03:22:51;0.07;;;0.07;;
17091;SDS011;8661;45.700;4.880;2022-09-03T03:25:17;0.07;;;0.07;;
17091;SDS011;8661;45.700;4.880;2022-09-03T03:27:44;0.20;;;0.20;;
17091;SDS011;8661;45.700;4.880;2022-09-03T03:30:12;0.10;;;0.10;;
17091;SDS011;8661;45.700;4.880;2022-09-03T03:32:39;0.00;;;0.00;;
17091;SDS011;8661;45.700;4.880;2022-09-03T03:35:06;0.10;;;0.10;;
17091;SDS011;8661;45.700;4.880;2022-09-03T03:37:33;0.10;;;0.10;;
17091;SDS011;8661;45.700;4.880;2022-09-03T03:40:02;0.00;;;0.00;;
17091;SDS011;8661;45.700;4.880;2022-09-03T03:42:31;0.10;;;0.10;;
17091;SDS011;8661;45.700;4.880;2022-09-03T03:44:58;0.20;;;0.20;;
17091;SDS011;8661;45.700;4.880;2022-09-03T03:47:26;0.00;;;0.00;;
17091;SDS011;8661;45.700;4.880;2022-09-03T03:49:54;0.10;;;0.10;;
17091;SDS011;8661;45.700;4.880;2022-09-03T03:52:21;0.00;;;0.00;;
17091;SDS011;8661;45.700;4.880;2022-09-03T03:54:49;0.30;;;0.30;;
17091;SDS011;8661;45.700;4.880;2022-09-03T03:57:19;0.67;;;0.40;;
17091;SDS011;8661;45.700;4.880;2022-09-03T03:59:47;0.30;;;0.30;;
17091;SDS011;8661;45.700;4.880;2022-09-03T04:02:14;0.20;;;0.20;;
17091;SDS011;8661;45.700;4.880;2022-09-03T04:04:41;0.20;;;0.20;;
17091;SDS011;8661;45.700;4.880;2022-09-03T04:07:09;0.20;;;0.20;;
17091;SDS011;8661;45.700;4.880;2022-09-03T04:09:35;0.00;;;0.00;;
17091;SDS011;8661;45.700;4.880;2022-09-03T04:12:02;0.10;;;0.10;;
17091;SDS011;8661;45.700;4.880;2022-09-03T04:14:34;0.10;;;0.10;;
17091;SDS011;8661;45.700;4.880;2022-09-03T04:17:01;0.00;;;0.00;;
17091;SDS011;8661;45.700;4.880;2022-09-03T04:19:28;0.10;;;0.10;;
17091;SDS011;8661;45.700;4.880;2022-09-03T04:21:55;0.00;;;0.00;;
17091;SDS011;8661;45.700;4.880;2022-09-03T04:24:22;0.30;;;0.30;;
17091;SDS011;8661;45.700;4.880;2022-09-03T04:26:49;0.00;;;0.00;;
17091;SDS011;8661;45.700;4.880;2022-09-03T04:29:18;0.20;;;0.20;;
17091;SDS011;8661;45.700;4.880;2022-09-03T04:31:47;0.10;;;0.10;;
17091;SDS011;8661;45.700;4.880;2022-09-03T04:34:28;0.00;;;0.00;;
17091;SDS011;8661;45.700;4.880;2022-09-03T04:36:54;0.00;;;0.00;;
17091;SDS011;8661;45.700;4.880;2022-09-03T04:39:23;0.00;;;0.00;;
17091;SDS011;8661;45.700;4.880;2022-09-03T04:41:49;0.10;;;0.10;;
17091;SDS011;8661;45.700;4.880;2022-09-03T04:44:16;0.00;;;0.00;;
17091;SDS011;8661;45.700;4.880;2022-09-03T04:46:43;0.00;;;0.00;;
17091;SDS011;8661;45.700;4.880;2022-09-03T04:49:13;0.00;;;0.00;;
17091;SDS011;8661;45.700;4.880;2022-09-03T04:51:40;0.20;;;0.20;;
17091;SDS011;8661;45.700;4.880;2022-09-03T04:54:08;0.00;;;0.00;;
17091;SDS011;8661;45.700;4.880;2022-09-03T04:56:37;0.10;;;0.10;;
17091;SDS011;8661;45.700;4.880;2022-09-03T04:59:05;0.00;;;0.00;;
17091;SDS011;8661;45.700;4.880;2022-09-03T05:01:34;0.10;;;0.10;;
17091;SDS011;8661;45.700;4.880;2022-09-03T05:04:02;0.20;;;0.20;;
17091;SDS011;8661;45.700;4.880;2022-09-03T05:06:31;0.10;;;0.10;;
17091;SDS011;8661;45.700;4.880;2022-09-03T05:08:59;0.00;;;0.00;;
17091;SDS011;8661;45.700;4.880;2022-09-03T05:11:27;0.27;;;0.23;;
17091;SDS011;8661;45.700;4.880;2022-09-03T05:13:55;0.10;;;0.10;;
17091;SDS011;8661;45.700;4.880;2022-09-03T05:16:24;0.20;;;0.20;;
17091;SDS011;8661;45.700;4.880;2022-09-03T05:18:52;0.50;;;0.30;;
17091;SDS011;8661;45.700;4.880;2022-09-03T05:21:20;0.30;;;0.30;;
17091;SDS011;8661;45.700;4.880;2022-09-03T05:23:49;0.50;;;0.40;;
17091;SDS011;8661;45.700;4.880;2022-09-03T05:26:17;0.47;;;0.40;;
17091;SDS011;8661;45.700;4.880;2022-09-03T05:28:45;0.20;;;0.20;;
17091;SDS011;8661;45.700;4.880;2022-09-03T05:31:13;0.00;;;0.00;;
17091;SDS011;8661;45.700;4.880;2022-09-03T05:33:42;0.00;;;0.00;;
17091;SDS011;8661;45.700;4.880;2022-09-03T05:36:11;0.10;;;0.10;;
17091;SDS011;8661;45.700;4.880;2022-09-03T05:38:40;0.10;;;0.10;;
17091;SDS011;8661;45.700;4.880;2022-09-03T05:41:09;0.00;;;0.00;;
17091;SDS011;8661;45.700;4.880;2022-09-03T05:43:37;0.00;;;0.00;;
17091;SDS011;8661;45.700;4.880;2022-09-03T05:46:05;0.00;;;0.00;;
17091;SDS011;8661;45.700;4.880;2022-09-03T05:48:33;0.00;;;0.00;;
17091;SDS011;8661;45.700;4.880;2022-09-03T05:51:02;0.00;;;0.00;;
17091;SDS011;8661;45.700;4.880;2022-09-03T05:53:32;0.00;;;0.00;;
17091;SDS011;8661;45.700;4.880;2022-09-03T05:56:01;0.20;;;0.10;;
17091;SDS011;8661;45.700;4.880;2022-09-03T05:58:33;0.00;;;0.00;;
17091;SDS011;8661;45.700;4.880;2022-09-03T06:01:08;0.00;;;0.00;;
17091;SDS011;8661;45.700;4.880;2022-09-03T06:03:36;0.00;;;0.00;;
17091;SDS011;8661;45.700;4.880;2022-09-03T06:06:03;0.00;;;0.00;;
17091;SDS011;8661;45.700;4.880;2022-09-03T06:08:31;0.00;;;0.00;;
17091;SDS011;8661;45.700;4.880;2022-09-03T06:10:58;0.10;;;0.10;;
17091;SDS011;8661;45.700;4.880;2022-09-03T06:13:25;0.00;;;0.00;;
17091;SDS011;8661;45.700;4.880;2022-09-03T06:15:56;0.00;;;0.00;;
17091;SDS011;8661;45.700;4.880;2022-09-03T06:18:24;0.10;;;0.10;;
17091;SDS011;8661;45.700;4.880;2022-09-03T06:20:54;0.00;;;0.00;;
17091;SDS011;8661;45.700;4.880;2022-09-03T06:23:23;0.00;;;0.00;;
17091;SDS011;8661;45.700;4.880;2022-09-03T06:25:58;0.00;;;0.00;;
17091;SDS011;8661;45.700;4.880;2022-09-03T06:28:26;0.10;;;0.10;;
17091;SDS011;8661;45.700;4.880;2022-09-03T06:30:56;0.00;;;0.00;;
17091;SDS011;8661;45.700;4.880;2022-09-03T06:33:26;0.00;;;0.00;;
17091;SDS011;8661;45.700;4.880;2022-09-03T06:35:55;0.00;;;0.00;;
17091;SDS011;8661;45.700;4.880;2022-09-03T06:38:23;0.10;;;0.10;;
17091;SDS011;8661;45.700;4.880;2022-09-03T06:40:52;0.00;;;0.00;;
17091;SDS011;8661;45.700;4.880;2022-09-03T06:43:20;0.03;;;0.03;;
17091;SDS011;8661;45.700;4.880;2022-09-03T06:45:53;0.07;;;0.07;;
17091;SDS011;8661;45.700;4.880;2022-09-03T06:48:23;0.43;;;0.30;;
17091;SDS011;8661;45.700;4.880;2022-09-03T06:50:54;0.13;;;0.13;;
17091;SDS011;8661;45.700;4.880;2022-09-03T06:53:22;0.00;;;0.00;;
17091;SDS011;8661;45.700;4.880;2022-09-03T06:55:54;0.00;;;0.00;;
17091;SDS011;8661;45.700;4.880;2022-09-03T06:58:22;0.10;;;0.10;;
17091;SDS011;8661;45.700;4.880;2022-09-03T07:00:50;0.00;;;0.00;;
17091;SDS011;8661;45.700;4.880;2022-09-03T07:03:18;0.07;;;0.07;;
17091;SDS011;8661;45.700;4.880;2022-09-03T07:05:47;0.00;;;0.00;;
17091;SDS011;8661;45.700;4.880;2022-09-03T07:08:13;0.00;;;0.00;;
17091;SDS011;8661;45.700;4.880;2022-09-03T07:10:44;0.00;;;0.00;;
17091;SDS011;8661;45.700;4.880;2022-09-03T07:13:13;0.10;;;0.10;;
17091;SDS011;8661;45.700;4.880;2022-09-03T07:15:40;0.10;;;0.10;;
17091;SDS011;8661;45.700;4.880;2022-09-03T07:18:07;0.20;;;0.20;;
17091;SDS011;8661;45.700;4.880;2022-09-03T07:20:34;0.10;;;0.10;;
17091;SDS011;8661;45.700;4.880;2022-09-03T07:23:02;0.00;;;0.00;;
17091;SDS011;8661;45.700;4.880;2022-09-03T07:25:29;0.10;;;0.10;;
17091;SDS011;8661;45.700;4.880;2022-09-03T07:27:56;0.10;;;0.10;;
17091;SDS011;8661;45.700;4.880;2022-09-03T07:30:24;0.30;;;0.27;;
17091;SDS011;8661;45.700;4.880;2022-09-03T07:32:51;0.20;;;0.20;;
17091;SDS011;8661;45.700;4.880;2022-09-03T07:35:19;0.10;;;0.10;;
17091;SDS011;8661;45.700;4.880;2022-09-03T07:37:49;1.23;;;0.27;;
17091;SDS011;8661;45.700;4.880;2022-09-03T07:40:18;0.10;;;0.10;;
17091;SDS011;8661;45.700;4.880;2022-09-03T07:42:45;0.07;;;0.03;;
17091;SDS011;8661;45.700;4.880;2022-09-03T07:45:12;4.37;;;1.27;;
17091;SDS011;8661;45.700;4.880;2022-09-03T07:47:44;10.17;;;5.10;;
17091;SDS011;8661;45.700;4.880;2022-09-03T07:50:12;8.43;;;4.70;;
17091;SDS011;8661;45.700;4.880;2022-09-03T07:52:40;8.80;;;4.40;;
17091;SDS011;8661;45.700;4.880;2022-09-03T07:55:07;8.40;;;4.97;;
17091;SDS011;8661;45.700;4.880;2022-09-03T07:57:36;7.43;;;5.07;;
17091;SDS011;8661;45.700;4.880;2022-09-03T08:00:04;7.97;;;4.20;;
17091;SDS011;8661;45.700;4.880;2022-09-03T08:02:32;6.13;;;4.57;;
17091;SDS011;8661;45.700;4.880;2022-09-03T08:04:59;4.60;;;4.20;;
17091;SDS011;8661;45.700;4.880;2022-09-03T08:07:27;5.20;;;4.10;;
17091;SDS011;8661;45.700;4.880;2022-09-03T08:09:54;6.70;;;4.10;;
17091;SDS011;8661;45.700;4.880;2022-09-03T08:12:21;4.60;;;3.43;;
17091;SDS011;8661;45.700;4.880;2022-09-03T08:14:50;7.13;;;4.50;;
17091;SDS011;8661;45.700;4.880;2022-09-03T08:17:17;6.30;;;4.00;;
17091;SDS011;8661;45.700;4.880;2022-09-03T08:19:44;8.50;;;4.60;;
17091;SDS011;8661;45.700;4.880;2022-09-03T08:22:11;7.60;;;4.10;;
17091;SDS011;8661;45.700;4.880;2022-09-03T08:24:39;8.67;;;4.40;;
17091;SDS011;8661;45.700;4.880;2022-09-03T08:27:06;6.13;;;3.93;;
17091;SDS011;8661;45.700;4.880;2022-09-03T08:29:34;5.57;;;4.07;;
17091;SDS011;8661;45.700;4.880;2022-09-03T08:32:03;6.27;;;4.03;;
17091;SDS011;8661;45.700;4.880;2022-09-03T08:34:30;9.77;;;4.70;;
17091;SDS011;8661;45.700;4.880;2022-09-03T08:36:57;7.20;;;4.07;;
17091;SDS011;8661;45.700;4.880;2022-09-03T08:39:25;4.67;;;4.17;;
17091;SDS011;8661;45.700;4.880;2022-09-03T08:42:00;6.97;;;3.90;;
17091;SDS011;8661;45.700;4.880;2022-09-03T08:44:50;6.97;;;3.63;;
17091;SDS011;8661;45.700;4.880;2022-09-03T08:47:22;4.80;;;3.70;;
17091;SDS011;8661;45.700;4.880;2022-09-03T08:49:55;6.20;;;4.07;;
17091;SDS011;8661;45.700;4.880;2022-09-03T08:52:27;5.83;;;3.63;;
17091;SDS011;8661;45.700;4.880;2022-09-03T08:55:00;5.57;;;3.60;;
17091;SDS011;8661;45.700;4.880;2022-09-03T08:57:35;5.67;;;3.47;;
17091;SDS011;8661;45.700;4.880;2022-09-03T09:00:09;5.37;;;3.67;;
17091;SDS011;8661;45.700;4.880;2022-09-03T09:02:40;7.27;;;4.07;;
17091;SDS011;8661;45.700;4.880;2022-09-03T09:05:23;6.33;;;4.27;;
17091;SDS011;8661;45.700;4.880;2022-09-03T09:07:58;5.10;;;3.60;;
17091;SDS011;8661;45.700;4.880;2022-09-03T09:10:32;7.57;;;4.20;;
17091;SDS011;8661;45.700;4.880;2022-09-03T09:13:08;4.73;;;3.87;;
17091;SDS011;8661;45.700;4.880;2022-09-03T09:15:46;5.80;;;4.17;;
17091;SDS011;8661;45.700;4.880;2022-09-03T09:18:22;5.83;;;3.83;;
17091;SDS011;8661;45.700;4.880;2022-09-03T09:21:01;5.60;;;4.23;;
17091;SDS011;8661;45.700;4.880;2022-09-03T09:23:34;4.43;;;4.00;;
17091;SDS011;8661;45.700;4.880;2022-09-03T09:26:06;6.67;;;3.60;;
17091;SDS011;8661;45.700;4.880;2022-09-03T09:28:37;6.20;;;3.97;;
17091;SDS011;8661;45.700;4.880;2022-09-03T09:31:05;5.20;;;4.17;;
17091;SDS011;8661;45.700;4.880;2022-09-03T09:33:37;5.43;;;3.20;;
17091;SDS011;8661;45.700;4.880;2022-09-03T09:36:05;4.33;;;3.10;;
17091;SDS011;8661;45.700;4.880;2022-09-03T09:38:37;5.80;;;2.70;;
17091;SDS011;8661;45.700;4.880;2022-09-03T09:41:08;7.33;;;3.10;;
17091;SDS011;8661;45.700;4.880;2022-09-03T09:43:36;5.83;;;2.80;;
17091;SDS011;8661;45.700;4.880;2022-09-03T09:46:08;3.07;;;2.43;;
17091;SDS011;8661;45.700;4.880;2022-09-03T09:48:42;4.50;;;2.33;;
17091;SDS011;8661;45.700;4.880;2022-09-03T09:51:17;2.97;;;2.20;;
17091;SDS011;8661;45.700;4.880;2022-09-03T09:53:45;7.50;;;2.60;;
17091;SDS011;8661;45.700;4.880;2022-09-03T09:56:19;4.23;;;2.63;;
17091;SDS011;8661;45.700;4.880;2022-09-03T09:58:47;4.63;;;2.70;;
17091;SDS011;8661;45.700;4.880;2022-09-03T10:01:17;3.47;;;2.40;;
17091;SDS011;8661;45.700;4.880;2022-09-03T10:03:51;5.50;;;2.60;;
17091;SDS011;8661;45.700;4.880;2022-09-03T10:06:21;5.43;;;2.33;;
17091;SDS011;8661;45.700;4.880;2022-09-03T10:09:08;3.77;;;2.40;;
17091;SDS011;8661;45.700;4.880;2022-09-03T10:11:36;3.37;;;2.40;;
17091;SDS011;8661;45.700;4.880;2022-09-03T10:14:08;3.77;;;2.50;;
17091;SDS011;8661;45.700;4.880;2022-09-03T10:16:41;2.67;;;2.13;;
17091;SDS011;8661;45.700;4.880;2022-09-03T10:19:16;4.80;;;2.50;;
17091;SDS011;8661;45.700;4.880;2022-09-03T10:21:48;5.10;;;2.37;;
17091;SDS011;8661;45.700;4.880;2022-09-03T10:24:25;4.53;;;2.50;;
17091;SDS011;8661;45.700;4.880;2022-09-03T10:26:58;4.97;;;2.87;;
17091;SDS011;8661;45.700;4.880;2022-09-03T10:29:25;5.97;;;2.90;;
17091;SDS011;8661;45.700;4.880;2022-09-03T10:31:58;5.35;;;3.15;;
17091;SDS011;8661;45.700;4.880;2022-09-03T10:34:37;3.27;;;2.70;;
17091;SDS011;8661;45.700;4.880;2022-09-03T10:37:16;4.30;;;3.10;;
17091;SDS011;8661;45.700;4.880;2022-09-03T10:39:51;3.27;;;2.93;;
17091;SDS011;8661;45.700;4.880;2022-09-03T10:42:33;3.40;;;2.60;;
17091;SDS011;8661;45.700;4.880;2022-09-03T10:45:07;4.83;;;2.60;;
17091;SDS011;8661;45.700;4.880;2022-09-03T10:47:51;4.43;;;3.00;;
17091;SDS011;8661;45.700;4.880;2022-09-03T10:50:47;4.60;;;2.63;;
17091;SDS011;8661;45.700;4.880;2022-09-03T10:53:25;6.03;;;2.80;;
17091;SDS011;8661;45.700;4.880;2022-09-03T10:56:01;3.23;;;2.80;;
17091;SDS011;8661;45.700;4.880;2022-09-03T10:58:36;3.87;;;2.37;;
17091;SDS011;8661;45.700;4.880;2022-09-03T11:01:17;3.53;;;2.37;;
17091;SDS011;8661;45.700;4.880;2022-09-03T11:03:55;23.20;;;8.03;;
17091;SDS011;8661;45.700;4.880;2022-09-03T11:06:38;3.10;;;2.60;;
17091;SDS011;8661;45.700;4.880;2022-09-03T11:09:12;2.50;;;2.13;;
17091;SDS011;8661;45.700;4.880;2022-09-03T11:11:46;3.93;;;2.50;;
17091;SDS011;8661;45.700;4.880;2022-09-03T11:14:17;2.97;;;2.43;;
17091;SDS011;8661;45.700;4.880;2022-09-03T11:16:57;3.93;;;2.20;;
17091;SDS011;8661;45.700;4.880;2022-09-03T11:19:32;4.13;;;2.30;;
17091;SDS011;8661;45.700;4.880;2022-09-03T11:22:03;4.97;;;2.30;;
17091;SDS011;8661;45.700;4.880;2022-09-03T11:24:33;3.90;;;2.55;;
17091;SDS011;8661;45.700;4.880;2022-09-03T11:27:06;4.68;;;2.15;;
17091;SDS011;8661;45.700;4.880;2022-09-03T11:29:47;5.72;;;2.35;;
17091;SDS011;8661;45.700;4.880;2022-09-03T11:32:19;3.03;;;2.30;;
17091;SDS011;8661;45.700;4.880;2022-09-03T11:34:51;3.55;;;2.25;;
17091;SDS011;8661;45.700;4.880;2022-09-03T11:37:21;2.83;;;2.20;;
17091;SDS011;8661;45.700;4.880;2022-09-03T11:39:53;3.72;;;2.10;;
17091;SDS011;8661;45.700;4.880;2022-09-03T11:42:33;3.28;;;2.33;;
17091;SDS011;8661;45.700;4.880;2022-09-03T11:48:00;3.28;;;2.38;;
17091;SDS011;8661;45.700;4.880;2022-09-03T11:50:27;2.50;;;2.10;;
17091;SDS011;8661;45.700;4.880;2022-09-03T11:53:08;3.67;;;2.20;;
17091;SDS011;8661;45.700;4.880;2022-09-03T11:55:48;5.20;;;2.22;;
17091;SDS011;8661;45.700;4.880;2022-09-03T11:58:20;3.92;;;2.28;;
17091;SDS011;8661;45.700;4.880;2022-09-03T12:00:50;3.15;;;1.90;;
17091;SDS011;8661;45.700;4.880;2022-09-03T12:03:21;3.72;;;2.38;;
17091;SDS011;8661;45.700;4.880;2022-09-03T12:05:56;6.15;;;2.75;;
17091;SDS011;8661;45.700;4.880;2022-09-03T12:08:41;5.15;;;2.40;;
17091;SDS011;8661;45.700;4.880;2022-09-03T12:11:29;3.53;;;2.13;;
17091;SDS011;8661;45.700;4.880;2022-09-03T12:14:07;2.35;;;2.15;;
17091;SDS011;8661;45.700;4.880;2022-09-03T12:19:31;2.45;;;1.85;;
17091;SDS011;8661;45.700;4.880;2022-09-03T12:22:03;3.78;;;1.88;;
17091;SDS011;8661;45.700;4.880;2022-09-03T12:24:31;3.65;;;2.45;;
17091;SDS011;8661;45.700;4.880;2022-09-03T12:26:59;3.85;;;2.22;;
17091;SDS011;8661;45.700;4.880;2022-09-03T12:29:27;2.10;;;1.90;;
17091;SDS011;8661;45.700;4.880;2022-09-03T12:32:03;4.03;;;2.03;;
17091;SDS011;8661;45.700;4.880;2022-09-03T12:34:32;2.97;;;2.10;;
17091;SDS011;8661;45.700;4.880;2022-09-03T12:36:58;3.53;;;2.53;;
17091;SDS011;8661;45.700;4.880;2022-09-03T12:39:26;2.95;;;1.98;;
17091;SDS011;8661;45.700;4.880;2022-09-03T12:42:00;5.78;;;1.90;;
17091;SDS011;8661;45.700;4.880;2022-09-03T12:44:29;2.65;;;1.92;;
17091;SDS011;8661;45.700;4.880;2022-09-03T12:47:01;2.88;;;1.80;;
17091;SDS011;8661;45.700;4.880;2022-09-03T12:49:34;2.72;;;2.05;;
17091;SDS011;8661;45.700;4.880;2022-09-03T12:52:05;1.88;;;1.75;;
17091;SDS011;8661;45.700;4.880;2022-09-03T12:54:37;5.15;;;1.90;;
17091;SDS011;8661;45.700;4.880;2022-09-03T12:57:11;3.13;;;1.90;;
17091;SDS011;8661;45.700;4.880;2022-09-03T12:59:44;2.67;;;2.15;;
17091;SDS011;8661;45.700;4.880;2022-09-03T13:02:15;1.58;;;1.48;;
17091;SDS011;8661;45.700;4.880;2022-09-03T13:04:46;2.17;;;1.90;;
17091;SDS011;8661;45.700;4.880;2022-09-03T13:07:14;2.22;;;2.00;;
17091;SDS011;8661;45.700;4.880;2022-09-03T13:09:48;5.85;;;1.83;;
17091;SDS011;8661;45.700;4.880;2022-09-03T13:12:27;1.77;;;1.67;;
17091;SDS011;8661;45.700;4.880;2022-09-03T13:14:56;2.53;;;1.63;;
17091;SDS011;8661;45.700;4.880;2022-09-03T13:17:29;2.50;;;1.80;;
17091;SDS011;8661;45.700;4.880;2022-09-03T13:20:18;2.63;;;1.85;;
17091;SDS011;8661;45.700;4.880;2022-09-03T13:23:01;2.20;;;1.70;;
17091;SDS011;8661;45.700;4.880;2022-09-03T13:25:46;2.22;;;1.73;;
17091;SDS011;8661;45.700;4.880;2022-09-03T13:28:25;5.00;;;2.10;;
17091;SDS011;8661;45.700;4.880;2022-09-03T13:31:05;4.07;;;2.08;;
17091;SDS011;8661;45.700;4.880;2022-09-03T13:33:46;2.70;;;2.05;;
17091;SDS011;8661;45.700;4.880;2022-09-03T13:36:17;3.78;;;2.00;;
17091;SDS011;8661;45.700;4.880;2022-09-03T13:38:49;3.67;;;2.20;;
17091;SDS011;8661;45.700;4.880;2022-09-03T13:41:22;2.05;;;1.52;;
17091;SDS011;8661;45.700;4.880;2022-09-03T13:44:02;2.03;;;1.52;;
17091;SDS011;8661;45.700;4.880;2022-09-03T13:46:34;3.03;;;1.70;;
17091;SDS011;8661;45.700;4.880;2022-09-03T13:49:12;4.00;;;1.93;;
17091;SDS011;8661;45.700;4.880;2022-09-03T13:52:07;1.90;;;1.80;;
17091;SDS011;8661;45.700;4.880;2022-09-03T13:54:48;4.70;;;2.70;;
17091;SDS011;8661;45.700;4.880;2022-09-03T13:57:22;5.10;;;2.73;;
17091;SDS011;8661;45.700;4.880;2022-09-03T13:59:57;5.70;;;2.43;;
17091;SDS011;8661;45.700;4.880;2022-09-03T14:02:27;3.70;;;2.17;;
17091;SDS011;8661;45.700;4.880;2022-09-03T14:05:05;4.27;;;2.40;;
17091;SDS011;8661;45.700;4.880;2022-09-03T14:10:36;3.80;;;1.83;;
17091;SDS011;8661;45.700;4.880;2022-09-03T14:13:18;5.43;;;2.73;;
17091;SDS011;8661;45.700;4.880;2022-09-03T14:15:57;9.40;;;3.10;;
17091;SDS011;8661;45.700;4.880;2022-09-03T14:18:34;5.27;;;2.63;;
17091;SDS011;8661;45.700;4.880;2022-09-03T14:21:06;6.20;;;2.67;;
17091;SDS011;8661;45.700;4.880;2022-09-03T14:23:39;13.70;;;4.20;;
17091;SDS011;8661;45.700;4.880;2022-09-03T14:26:14;0.10;;;0.10;;
17091;SDS011;8661;45.700;4.880;2022-09-03T14:28:45;0.00;;;0.00;;
17091;SDS011;8661;45.700;4.880;2022-09-03T14:31:18;0.00;;;0.00;;
17091;SDS011;8661;45.700;4.880;2022-09-03T14:33:52;0.00;;;0.00;;
17091;SDS011;8661;45.700;4.880;2022-09-03T14:36:27;0.00;;;0.00;;
17091;SDS011;8661;45.700;4.880;2022-09-03T14:39:10;0.00;;;0.00;;
17091;SDS011;8661;45.700;4.880;2022-09-03T14:41:53;0.13;;;0.13;;
17091;SDS011;8661;45.700;4.880;2022-09-03T14:44:35;0.00;;;0.00;;
17091;SDS011;8661;45.700;4.880;2022-09-03T14:47:21;0.00;;;0.00;;
17091;SDS011;8661;45.700;4.880;2022-09-03T14:50:02;0.00;;;0.00;;
17091;SDS011;8661;45.700;4.880;2022-09-03T14:56:07;0.00;;;0.00;;
17091;SDS011;8661;45.700;4.880;2022-09-03T14:58:49;0.00;;;0.00;;
17091;SDS011;8661;45.700;4.880;2022-09-03T15:01:28;0.00;;;0.00;;
17091;SDS011;8661;45.700;4.880;2022-09-03T15:04:11;0.00;;;0.00;;
17091;SDS011;8661;45.700;4.880;2022-09-03T15:07:05;0.00;;;0.00;;
17091;SDS011;8661;45.700;4.880;2022-09-03T15:09:44;0.00;;;0.00;;
17091;SDS011;8661;45.700;4.880;2022-09-03T15:12:20;0.10;;;0.10;;
17091;SDS011;8661;45.700;4.880;2022-09-03T15:14:52;0.00;;;0.00;;
17091;SDS011;8661;45.700;4.880;2022-09-03T15:17:31;0.00;;;0.00;;
17091;SDS011;8661;45.700;4.880;2022-09-03T15:20:18;0.00;;;0.00;;
17091;SDS011;8661;45.700;4.880;2022-09-03T15:25:57;0.00;;;0.00;;
17091;SDS011;8661;45.700;4.880;2022-09-03T15:28:44;0.00;;;0.00;;
17091;SDS011;8661;45.700;4.880;2022-09-03T15:31:23;0.00;;;0.00;;
17091;SDS011;8661;45.700;4.880;2022-09-03T15:33:59;0.00;;;0.00;;
17091;SDS011;8661;45.700;4.880;2022-09-03T15:36:41;0.00;;;0.00;;
17091;SDS011;8661;45.700;4.880;2022-09-03T15:39:14;0.00;;;0.00;;
17091;SDS011;8661;45.700;4.880;2022-09-03T15:41:49;0.00;;;0.00;;
17091;SDS011;8661;45.700;4.880;2022-09-03T15:44:20;0.00;;;0.00;;
17091;SDS011;8661;45.700;4.880;2022-09-03T15:46:53;0.00;;;0.00;;
17091;SDS011;8661;45.700;4.880;2022-09-03T15:49:26;0.00;;;0.00;;
17091;SDS011;8661;45.700;4.880;2022-09-03T15:52:05;0.00;;;0.00;;
17091;SDS011;8661;45.700;4.880;2022-09-03T15:54:38;0.20;;;0.20;;